createdAt,value
2019-02-02T00:00:31.120Z,430.40
2019-02-02T00:01:31.111Z,429.80
2019-02-02T00:02:31.102Z,426.86
2019-02-02T00:03:31.095Z,428.98
2019-02-02T00:04:31.102Z,427.88
2019-02-02T00:05:31.137Z,425.35
2019-02-02T00:06:31.201Z,433.82
2019-02-02T00:07:31.064Z,431.10
2019-02-02T00:08:31.041Z,429.19
2019-02-02T00:09:31.039Z,431.73
2019-02-02T00:10:31.056Z,429.75
2019-02-02T00:11:31.019Z,429.15
2019-02-02T00:12:30.998Z,431.30
2019-02-02T00:13:31.022Z,430.35
2019-02-02T00:14:30.972Z,427.61
2019-02-02T00:15:30.961Z,428.65
2019-02-02T00:16:30.954Z,428.05
2019-02-02T00:17:30.967Z,427.33
2019-02-02T00:18:30.962Z,427.13
2019-02-02T00:19:30.926Z,428.59
2019-02-02T00:20:30.903Z,427.49
2019-02-02T00:21:30.924Z,427.99
2019-02-02T00:22:30.897Z,429.96
2019-02-02T00:23:30.903Z,426.44
2019-02-02T00:24:30.867Z,428.82
2019-02-02T00:25:30.855Z,427.36
2019-02-02T00:26:30.842Z,422.99
2019-02-02T00:27:40.846Z,425.80
2019-02-02T00:28:31.841Z,422.27
2019-02-02T00:29:30.843Z,424.12
2019-02-02T00:30:30.805Z,424.30
2019-02-02T00:31:30.794Z,428.56
2019-02-02T00:32:30.794Z,426.71
2019-02-02T00:33:30.783Z,425.73
2019-02-02T00:34:30.781Z,429.28
2019-02-02T00:35:30.752Z,425.50
2019-02-02T00:36:30.746Z,429.80
2019-02-02T00:37:30.819Z,430.56
2019-02-02T00:38:30.725Z,423.13
2019-02-02T00:39:30.696Z,427.18
2019-02-02T00:40:30.701Z,429.46
2019-02-02T00:41:30.701Z,428.55
2019-02-02T00:42:30.685Z,427.58
2019-02-02T00:43:30.680Z,428.35
2019-02-02T00:44:30.652Z,430.85
2019-02-02T00:45:30.632Z,422.87
2019-02-02T00:46:30.629Z,425.65
2019-02-02T00:47:30.607Z,428.98
2019-02-02T00:48:30.654Z,427.25
2019-02-02T00:49:30.598Z,428.27
2019-02-02T00:50:30.596Z,428.22
2019-02-02T00:51:30.579Z,422.49
2019-02-02T00:52:30.578Z,424.85
2019-02-02T00:53:30.549Z,421.54
2019-02-02T00:54:30.588Z,426.55
2019-02-02T00:55:30.537Z,424.52
2019-02-02T00:56:30.524Z,424.35
2019-02-02T00:57:30.508Z,424.00
2019-02-02T00:58:30.521Z,421.39
2019-02-02T00:59:30.514Z,426.32
2019-02-02T01:00:30.479Z,421.42
2019-02-02T01:01:30.468Z,421.04
2019-02-02T01:02:30.464Z,424.04
2019-02-02T01:03:30.451Z,420.34
2019-02-02T01:04:30.456Z,422.53
2019-02-02T01:05:30.418Z,430.64
2019-02-02T01:06:30.412Z,426.37
2019-02-02T01:07:30.437Z,422.45
2019-02-02T01:08:30.401Z,426.00
2019-02-02T01:09:30.386Z,424.68
2019-02-02T01:10:30.392Z,420.64
2019-02-02T01:11:30.352Z,424.29
2019-02-02T01:12:30.353Z,422.57
2019-02-02T01:13:30.351Z,425.37
2019-02-02T01:14:30.338Z,425.66
2019-02-02T01:15:30.340Z,422.27
2019-02-02T01:16:30.330Z,423.85
2019-02-02T01:17:30.305Z,421.62
2019-02-02T01:18:30.281Z,425.07
2019-02-02T01:19:30.270Z,425.51
2019-02-02T01:20:30.384Z,424.24
2019-02-02T01:21:30.332Z,428.20
2019-02-02T01:22:30.341Z,421.22
2019-02-02T01:23:30.232Z,424.26
2019-02-02T01:24:30.211Z,425.47
2019-02-02T01:25:30.213Z,421.84
2019-02-02T01:26:30.223Z,430.96
2019-02-02T01:27:30.205Z,425.94
2019-02-02T01:28:30.193Z,425.21
2019-02-02T01:29:30.156Z,423.28
2019-02-02T01:30:30.147Z,425.71
2019-02-02T01:31:30.148Z,426.60
2019-02-02T01:32:30.179Z,425.31
2019-02-02T01:33:30.122Z,426.22
2019-02-02T01:34:30.114Z,422.30
2019-02-02T01:35:30.099Z,424.72
2019-02-02T01:36:30.087Z,425.31
2019-02-02T01:37:30.083Z,428.41
2019-02-02T01:38:30.095Z,432.71
2019-02-02T01:39:30.066Z,425.47
2019-02-02T01:40:30.050Z,423.03
2019-02-02T01:41:30.041Z,425.42
2019-02-02T01:42:30.028Z,422.62
2019-02-02T01:43:30.020Z,427.43
2019-02-02T01:44:30.046Z,423.60
2019-02-02T01:45:30.001Z,424.03
2019-02-02T01:46:29.993Z,431.34
2019-02-02T01:47:30.092Z,431.18
2019-02-02T01:48:29.958Z,427.70
2019-02-02T01:49:29.967Z,425.43
2019-02-02T01:50:29.969Z,423.85
2019-02-02T01:51:29.920Z,424.61
2019-02-02T01:52:29.941Z,429.35
2019-02-02T01:53:29.916Z,426.73
2019-02-02T01:54:29.965Z,420.30
2019-02-02T01:55:29.911Z,422.21
2019-02-02T01:56:29.875Z,427.81
2019-02-02T01:57:29.871Z,425.33
2019-02-02T01:58:29.853Z,424.26
2019-02-02T01:59:29.856Z,421.79
2019-02-02T02:00:29.855Z,422.82
2019-02-02T02:01:29.812Z,425.29
2019-02-02T02:02:29.812Z,424.86
2019-02-02T02:03:29.803Z,423.16
2019-02-02T02:04:29.804Z,430.10
2019-02-02T02:05:29.837Z,428.53
2019-02-02T02:06:29.789Z,423.12
2019-02-02T02:07:29.758Z,421.41
2019-02-02T02:08:29.747Z,424.50
2019-02-02T02:09:29.737Z,424.44
2019-02-02T02:10:29.725Z,426.13
2019-02-02T02:11:29.729Z,427.72
2019-02-02T02:12:29.708Z,425.19
2019-02-02T02:13:29.694Z,419.18
2019-02-02T02:14:29.807Z,423.24
2019-02-02T02:15:29.670Z,421.98
2019-02-02T02:16:29.685Z,425.55
2019-02-02T02:17:29.656Z,424.92
2019-02-02T02:18:29.659Z,420.28
2019-02-02T02:19:29.671Z,427.21
2019-02-02T02:20:29.627Z,423.22
2019-02-02T02:21:29.603Z,423.38
2019-02-02T02:22:40.641Z,428.22
2019-02-02T02:23:30.585Z,425.61
2019-02-02T02:24:29.596Z,421.58
2019-02-02T02:25:29.573Z,423.00
2019-02-02T02:26:29.565Z,426.85
2019-02-02T02:27:29.549Z,422.58
2019-02-02T02:28:29.560Z,423.46
2019-02-02T02:29:29.512Z,423.80
2019-02-02T02:30:29.521Z,425.44
2019-02-02T02:31:29.514Z,424.95
2019-02-02T02:32:29.493Z,426.93
2019-02-02T02:33:29.487Z,426.22
2019-02-02T02:34:29.489Z,423.26
2019-02-02T02:35:29.448Z,424.19
2019-02-02T02:36:29.474Z,420.29
2019-02-02T02:37:29.446Z,427.10
2019-02-02T02:38:29.463Z,423.31
2019-02-02T02:39:29.416Z,424.93
2019-02-02T02:40:29.427Z,422.65
2019-02-02T02:41:29.393Z,421.02
2019-02-02T02:42:29.378Z,423.04
2019-02-02T02:43:29.360Z,421.78
2019-02-02T02:44:29.369Z,426.34
2019-02-02T02:45:29.360Z,425.48
2019-02-02T02:46:29.359Z,426.12
2019-02-02T02:47:29.334Z,423.85
2019-02-02T02:48:29.316Z,424.82
2019-02-02T02:49:29.334Z,421.57
2019-02-02T02:50:29.300Z,422.69
2019-02-02T02:51:29.315Z,420.08
2019-02-02T02:52:29.270Z,418.09
2019-02-02T02:53:29.257Z,421.69
2019-02-02T02:54:29.256Z,420.19
2019-02-02T02:55:29.237Z,422.34
2019-02-02T02:56:29.242Z,418.85
2019-02-02T02:57:29.258Z,423.70
2019-02-02T02:58:40.502Z,419.15
2019-02-02T02:59:30.214Z,425.43
2019-02-02T03:00:29.201Z,420.13
2019-02-02T03:01:29.175Z,427.17
2019-02-02T03:02:29.169Z,424.35
2019-02-02T03:03:29.210Z,429.14
2019-02-02T03:04:29.151Z,421.58
2019-02-02T03:05:29.126Z,422.37
2019-02-02T03:06:29.120Z,428.16
2019-02-02T03:07:29.116Z,423.05
2019-02-02T03:08:29.124Z,422.33
2019-02-02T03:09:29.095Z,424.36
2019-02-02T03:10:29.092Z,425.12
2019-02-02T03:11:29.073Z,418.62
2019-02-02T03:12:29.067Z,423.93
2019-02-02T03:13:29.080Z,419.11
2019-02-02T03:14:29.033Z,423.23
2019-02-02T03:15:29.018Z,420.03
2019-02-02T03:16:29.026Z,421.62
2019-02-02T03:17:29.008Z,423.65
2019-02-02T03:18:29.008Z,424.07
2019-02-02T03:19:29.000Z,422.42
2019-02-02T03:20:28.977Z,425.79
2019-02-02T03:21:28.959Z,419.72
2019-02-02T03:22:28.967Z,424.49
2019-02-02T03:23:28.952Z,421.09
2019-02-02T03:24:28.934Z,425.64
2019-02-02T03:25:28.951Z,422.00
2019-02-02T03:26:28.913Z,425.10
2019-02-02T03:27:28.897Z,419.12
2019-02-02T03:28:28.886Z,416.67
2019-02-02T03:29:28.881Z,423.77
2019-02-02T03:30:28.897Z,425.10
2019-02-02T03:31:28.858Z,420.77
2019-02-02T03:32:28.837Z,423.70
2019-02-02T03:33:28.838Z,424.51
2019-02-02T03:34:28.824Z,425.49
2019-02-02T03:35:28.830Z,418.07
2019-02-02T03:36:28.833Z,423.67
2019-02-02T03:37:28.795Z,425.46
2019-02-02T03:38:28.776Z,423.29
2019-02-02T03:39:28.769Z,420.35
2019-02-02T03:40:28.759Z,421.09
2019-02-02T03:41:28.807Z,424.09
2019-02-02T03:42:28.736Z,421.69
2019-02-02T03:43:28.736Z,423.62
2019-02-02T03:44:28.709Z,420.69
2019-02-02T03:45:28.697Z,420.68
2019-02-02T03:46:28.692Z,421.67
2019-02-02T03:47:28.702Z,422.88
2019-02-02T03:48:28.771Z,421.71
2019-02-02T03:49:28.672Z,419.75
2019-02-02T03:50:28.643Z,420.12
2019-02-02T03:51:28.641Z,424.52
2019-02-02T03:52:28.668Z,420.55
2019-02-02T03:53:28.619Z,420.89
2019-02-02T03:54:28.616Z,422.70
2019-02-02T03:55:28.599Z,421.15
2019-02-02T03:56:28.584Z,419.11
2019-02-02T03:57:28.595Z,417.38
2019-02-02T03:58:28.707Z,423.16
2019-02-02T03:59:28.545Z,424.88
2019-02-02T04:00:28.554Z,415.44
2019-02-02T04:01:30.122Z,424.32
2019-02-02T04:02:28.532Z,421.79
2019-02-02T04:03:28.519Z,420.27
2019-02-02T04:04:28.609Z,414.88
2019-02-02T04:05:28.482Z,418.91
2019-02-02T04:06:28.488Z,417.42
2019-02-02T04:07:28.473Z,419.39
2019-02-02T04:08:28.477Z,419.43
2019-02-02T04:09:28.442Z,419.28
2019-02-02T04:10:28.450Z,417.02
2019-02-02T04:11:28.454Z,423.39
2019-02-02T04:12:28.415Z,417.42
2019-02-02T04:13:28.408Z,419.88
2019-02-02T04:14:28.410Z,421.24
2019-02-02T04:15:28.409Z,418.44
2019-02-02T04:16:28.386Z,423.18
2019-02-02T04:17:28.358Z,419.89
2019-02-02T04:18:28.355Z,417.57
2019-02-02T04:19:28.341Z,421.54
2019-02-02T04:20:28.352Z,418.44
2019-02-02T04:21:28.326Z,417.42
2019-02-02T04:22:28.314Z,417.53
2019-02-02T04:23:28.297Z,419.95
2019-02-02T04:24:28.287Z,421.09
2019-02-02T04:25:28.354Z,421.02
2019-02-02T04:26:28.287Z,420.04
2019-02-02T04:27:28.256Z,419.66
2019-02-02T04:28:28.270Z,420.49
2019-02-02T04:29:28.226Z,422.85
2019-02-02T04:30:28.212Z,419.67
2019-02-02T04:31:28.228Z,420.37
2019-02-02T04:32:28.208Z,416.59
2019-02-02T04:33:28.210Z,421.39
2019-02-02T04:34:28.181Z,423.24
2019-02-02T04:35:28.167Z,421.17
2019-02-02T04:36:28.171Z,423.00
2019-02-02T04:37:28.147Z,421.58
2019-02-02T04:38:28.145Z,423.85
2019-02-02T04:39:28.130Z,419.94
2019-02-02T04:40:28.106Z,425.29
2019-02-02T04:41:28.116Z,422.51
2019-02-02T04:42:28.087Z,422.54
2019-02-02T04:43:28.072Z,423.18
2019-02-02T04:44:28.078Z,418.91
2019-02-02T04:45:28.061Z,416.95
2019-02-02T04:46:28.053Z,418.90
2019-02-02T04:47:28.066Z,415.85
2019-02-02T04:48:28.027Z,421.72
2019-02-02T04:49:28.011Z,420.77
2019-02-02T04:50:28.010Z,419.26
2019-02-02T04:51:27.994Z,419.99
2019-02-02T04:52:28.015Z,422.63
2019-02-02T04:53:27.975Z,417.79
2019-02-02T04:54:27.954Z,421.91
2019-02-02T04:55:27.951Z,416.87
2019-02-02T04:56:27.946Z,416.86
2019-02-02T04:57:27.943Z,417.55
2019-02-02T04:58:27.938Z,423.55
2019-02-02T04:59:29.192Z,416.10
2019-02-02T05:00:27.969Z,416.86
2019-02-02T05:01:27.897Z,416.84
2019-02-02T05:02:30.382Z,420.04
2019-02-02T05:03:27.874Z,420.73
2019-02-02T05:04:27.859Z,421.39
2019-02-02T05:05:27.847Z,420.64
2019-02-02T05:06:27.830Z,418.13
2019-02-02T05:07:27.831Z,416.97
2019-02-02T05:08:27.834Z,424.04
2019-02-02T05:09:27.786Z,416.32
2019-02-02T05:10:27.801Z,419.27
2019-02-02T05:11:27.782Z,419.95
2019-02-02T05:12:27.762Z,416.41
2019-02-02T05:13:27.759Z,418.66
2019-02-02T05:14:27.744Z,419.57
2019-02-02T05:15:27.749Z,417.95
2019-02-02T05:16:27.729Z,419.54
2019-02-02T05:17:27.725Z,417.55
2019-02-02T05:18:27.708Z,424.06
2019-02-02T05:19:27.696Z,418.24
2019-02-02T05:20:28.678Z,425.12
2019-02-02T05:21:27.680Z,426.02
2019-02-02T05:22:27.667Z,419.39
2019-02-02T05:23:27.653Z,419.41
2019-02-02T05:24:27.643Z,422.94
2019-02-02T05:25:27.635Z,422.04
2019-02-02T05:26:27.638Z,416.90
2019-02-02T05:27:27.598Z,424.59
2019-02-02T05:28:27.595Z,419.62
2019-02-02T05:29:27.689Z,419.81
2019-02-02T05:30:27.603Z,422.53
2019-02-02T05:31:27.596Z,417.98
2019-02-02T05:32:27.581Z,421.36
2019-02-02T05:33:27.586Z,417.37
2019-02-02T05:34:27.557Z,419.52
2019-02-02T05:35:27.577Z,422.90
2019-02-02T05:36:27.528Z,423.59
2019-02-02T05:37:27.544Z,424.92
2019-02-02T05:38:27.510Z,423.59
2019-02-02T05:39:27.499Z,424.87
2019-02-02T05:40:27.487Z,421.79
2019-02-02T05:41:27.466Z,421.28
2019-02-02T05:42:27.521Z,420.94
2019-02-02T05:43:27.456Z,420.12
2019-02-02T05:44:27.434Z,422.53
2019-02-02T05:45:27.430Z,420.14
2019-02-02T05:46:27.410Z,426.01
2019-02-02T05:47:27.441Z,419.99
2019-02-02T05:48:27.430Z,418.96
2019-02-02T05:49:27.449Z,416.99
2019-02-02T05:50:27.373Z,419.22
2019-02-02T05:51:27.361Z,421.10
2019-02-02T05:52:27.360Z,420.07
2019-02-02T05:53:27.369Z,417.70
2019-02-02T05:54:27.307Z,423.00
2019-02-02T05:55:27.333Z,420.66
2019-02-02T05:56:27.357Z,421.46
2019-02-02T05:57:27.282Z,423.40
2019-02-02T05:58:27.326Z,420.04
2019-02-02T05:59:27.273Z,420.92
2019-02-02T06:00:27.330Z,423.01
2019-02-02T06:01:29.981Z,418.77
2019-02-02T06:02:27.229Z,422.07
2019-02-02T06:03:27.226Z,421.89
2019-02-02T06:04:27.196Z,420.79
2019-02-02T06:05:27.238Z,419.01
2019-02-02T06:06:27.223Z,421.57
2019-02-02T06:07:27.201Z,422.09
2019-02-02T06:08:27.179Z,420.81
2019-02-02T06:09:27.163Z,425.12
2019-02-02T06:10:27.224Z,419.67
2019-02-02T06:11:27.148Z,419.92
2019-02-02T06:12:27.122Z,418.80
2019-02-02T06:13:27.138Z,421.17
2019-02-02T06:14:27.107Z,419.39
2019-02-02T06:15:28.764Z,415.52
2019-02-02T06:16:27.115Z,417.82
2019-02-02T06:17:27.067Z,420.38
2019-02-02T06:18:27.069Z,416.80
2019-02-02T06:19:27.089Z,419.62
2019-02-02T06:20:27.038Z,418.35
2019-02-02T06:21:27.115Z,421.37
2019-02-02T06:22:27.056Z,419.13
2019-02-02T06:23:27.000Z,417.30
2019-02-02T06:24:27.019Z,417.42
2019-02-02T06:25:27.029Z,420.79
2019-02-02T06:26:27.027Z,421.03
2019-02-02T06:27:27.074Z,414.88
2019-02-02T06:28:26.955Z,419.10
2019-02-02T06:29:26.959Z,418.78
2019-02-02T06:30:26.943Z,423.30
2019-02-02T06:31:27.010Z,417.39
2019-02-02T06:32:26.963Z,425.73
2019-02-02T06:33:26.916Z,418.22
2019-02-02T06:34:26.895Z,419.23
2019-02-02T06:35:26.888Z,418.82
2019-02-02T06:36:26.876Z,418.40
2019-02-02T06:37:26.881Z,420.03
2019-02-02T06:38:26.840Z,421.22
2019-02-02T06:39:26.835Z,417.30
2019-02-02T06:40:26.884Z,423.20
2019-02-02T06:41:26.812Z,419.99
2019-02-02T06:42:26.826Z,418.19
2019-02-02T06:43:26.855Z,419.13
2019-02-02T06:44:26.878Z,419.03
2019-02-02T06:45:26.836Z,416.65
2019-02-02T06:46:26.764Z,421.15
2019-02-02T06:47:26.752Z,417.64
2019-02-02T06:48:26.731Z,418.78
2019-02-02T06:49:26.713Z,416.92
2019-02-02T06:50:26.787Z,415.76
2019-02-02T06:51:26.707Z,421.10
2019-02-02T06:52:26.707Z,417.00
2019-02-02T06:53:26.698Z,419.05
2019-02-02T06:54:26.697Z,417.76
2019-02-02T06:55:26.669Z,419.34
2019-02-02T06:56:26.670Z,421.65
2019-02-02T06:57:26.679Z,418.59
2019-02-02T06:58:26.624Z,419.21
2019-02-02T06:59:26.684Z,418.29
2019-02-02T07:00:26.725Z,421.00
2019-02-02T07:01:26.606Z,422.77
2019-02-02T07:02:26.578Z,421.04
2019-02-02T07:03:26.613Z,416.54
2019-02-02T07:04:26.584Z,420.25
2019-02-02T07:05:26.624Z,420.48
2019-02-02T07:06:26.547Z,419.13
2019-02-02T07:07:26.544Z,421.10
2019-02-02T07:08:26.521Z,416.93
2019-02-02T07:09:26.503Z,418.41
2019-02-02T07:10:26.486Z,419.81
2019-02-02T07:11:26.499Z,421.67
2019-02-02T07:12:26.500Z,417.77
2019-02-02T07:13:26.484Z,419.13
2019-02-02T07:14:26.459Z,421.56
2019-02-02T07:15:26.456Z,419.34
2019-02-02T07:16:26.456Z,418.92
2019-02-02T07:17:26.416Z,420.20
2019-02-02T07:18:26.412Z,418.28
2019-02-02T07:19:29.086Z,419.78
2019-02-02T07:20:26.401Z,420.20
2019-02-02T07:21:26.389Z,419.67
2019-02-02T07:22:26.379Z,418.54
2019-02-02T07:23:26.362Z,415.60
2019-02-02T07:24:26.366Z,420.22
2019-02-02T07:25:26.335Z,414.24
2019-02-02T07:26:26.318Z,416.74
2019-02-02T07:27:26.314Z,421.75
2019-02-02T07:28:26.301Z,416.71
2019-02-02T07:29:26.340Z,419.00
2019-02-02T07:30:29.130Z,414.51
2019-02-02T07:31:26.266Z,419.95
2019-02-02T07:32:26.278Z,423.12
2019-02-02T07:33:26.285Z,418.63
2019-02-02T07:34:26.238Z,417.81
2019-02-02T07:35:26.243Z,414.41
2019-02-02T07:36:26.221Z,420.12
2019-02-02T07:37:26.212Z,417.23
2019-02-02T07:38:26.239Z,420.94
2019-02-02T07:39:26.226Z,419.17
2019-02-02T07:40:26.204Z,418.37
2019-02-02T07:41:26.184Z,417.95
2019-02-02T07:42:26.140Z,420.69
2019-02-02T07:43:26.133Z,413.20
2019-02-02T07:44:26.137Z,418.27
2019-02-02T07:45:26.162Z,417.70
2019-02-02T07:46:26.116Z,419.37
2019-02-02T07:47:26.098Z,419.15
2019-02-02T07:48:26.083Z,416.99
2019-02-02T07:49:26.099Z,420.10
2019-02-02T07:50:26.071Z,418.23
2019-02-02T07:51:26.080Z,415.11
2019-02-02T07:52:26.042Z,417.48
2019-02-02T07:53:26.018Z,419.09
2019-02-02T07:54:26.014Z,417.26
2019-02-02T07:55:26.034Z,417.17
2019-02-02T07:56:26.297Z,415.73
2019-02-02T07:57:26.017Z,415.83
2019-02-02T07:58:25.991Z,421.47
2019-02-02T07:59:25.997Z,418.98
2019-02-02T08:00:26.000Z,419.76
2019-02-02T08:01:25.937Z,418.23
2019-02-02T08:02:25.940Z,419.70
2019-02-02T08:03:25.947Z,421.30
2019-02-02T08:04:25.926Z,421.68
2019-02-02T08:05:25.952Z,420.65
2019-02-02T08:06:25.911Z,418.10
2019-02-02T08:07:25.873Z,419.75
2019-02-02T08:08:25.883Z,419.34
2019-02-02T08:09:25.882Z,421.88
2019-02-02T08:10:25.868Z,418.51
2019-02-02T08:11:25.874Z,418.59
2019-02-02T08:12:25.842Z,420.04
2019-02-02T08:13:25.813Z,418.59
2019-02-02T08:14:25.821Z,417.45
2019-02-02T08:15:25.796Z,417.86
2019-02-02T08:16:25.813Z,418.50
2019-02-02T08:17:25.771Z,420.89
2019-02-02T08:18:25.771Z,418.39
2019-02-02T08:19:25.927Z,420.14
2019-02-02T08:20:25.755Z,421.75
2019-02-02T08:21:25.738Z,422.82
2019-02-02T08:22:25.750Z,421.18
2019-02-02T08:23:25.717Z,419.80
2019-02-02T08:24:25.695Z,420.23
2019-02-02T08:25:25.696Z,421.76
2019-02-02T08:26:25.697Z,416.82
2019-02-02T08:27:25.684Z,417.40
2019-02-02T08:28:25.657Z,421.65
2019-02-02T08:29:25.648Z,417.81
2019-02-02T08:30:25.639Z,417.22
2019-02-02T08:31:25.632Z,418.86
2019-02-02T08:32:25.663Z,418.96
2019-02-02T08:33:25.615Z,420.72
2019-02-02T08:34:25.581Z,420.92
2019-02-02T08:35:25.592Z,422.55
2019-02-02T08:36:25.575Z,419.78
2019-02-02T08:37:25.588Z,420.65
2019-02-02T08:38:25.585Z,421.01
2019-02-02T08:39:29.170Z,419.49
2019-02-02T08:40:25.532Z,419.11
2019-02-02T08:41:25.522Z,419.18
2019-02-02T08:42:25.512Z,420.32
2019-02-02T08:43:25.506Z,418.31
2019-02-02T08:44:25.509Z,415.94
2019-02-02T08:45:25.460Z,422.89
2019-02-02T08:46:25.460Z,422.36
2019-02-02T08:47:25.441Z,424.38
2019-02-02T08:48:25.478Z,422.71
2019-02-02T08:49:25.436Z,421.82
2019-02-02T08:50:25.424Z,421.02
2019-02-02T08:51:25.408Z,421.33
2019-02-02T08:52:25.392Z,420.59
2019-02-02T08:53:25.464Z,416.65
2019-02-02T08:54:25.410Z,420.81
2019-02-02T08:55:25.411Z,422.83
2019-02-02T08:56:25.356Z,420.85
2019-02-02T08:57:25.349Z,420.97
2019-02-02T08:58:25.448Z,419.23
2019-02-02T08:59:25.318Z,420.08
2019-02-02T09:00:25.329Z,423.55
2019-02-02T09:01:25.299Z,418.95
2019-02-02T09:02:25.387Z,419.61
2019-02-02T09:03:25.375Z,420.33
2019-02-02T09:04:25.385Z,419.88
2019-02-02T09:05:25.278Z,420.08
2019-02-02T09:06:25.249Z,420.67
2019-02-02T09:07:25.228Z,421.96
2019-02-02T09:08:25.227Z,417.01
2019-02-02T09:09:25.245Z,416.48
2019-02-02T09:10:25.195Z,418.72
2019-02-02T09:11:25.191Z,420.19
2019-02-02T09:12:25.187Z,417.52
2019-02-02T09:13:25.167Z,418.02
2019-02-02T09:14:25.166Z,420.53
2019-02-02T09:15:25.176Z,419.03
2019-02-02T09:16:25.150Z,417.04
2019-02-02T09:17:25.120Z,419.07
2019-02-02T09:18:25.103Z,428.12
2019-02-02T09:19:25.099Z,418.70
2019-02-02T09:20:25.121Z,414.94
2019-02-02T09:21:25.093Z,418.01
2019-02-02T09:22:25.072Z,419.21
2019-02-02T09:23:25.067Z,419.51
2019-02-02T09:24:25.040Z,417.78
2019-02-02T09:25:25.044Z,421.26
2019-02-02T09:26:25.057Z,420.46
2019-02-02T09:27:25.048Z,415.29
2019-02-02T09:28:25.022Z,419.31
2019-02-02T09:29:24.988Z,417.90
2019-02-02T09:30:24.975Z,418.54
2019-02-02T09:31:24.975Z,419.74
2019-02-02T09:32:25.009Z,414.33
2019-02-02T09:33:25.059Z,419.87
2019-02-02T09:34:24.988Z,420.11
2019-02-02T09:35:24.935Z,417.29
2019-02-02T09:36:24.928Z,418.74
2019-02-02T09:37:24.908Z,418.37
2019-02-02T09:38:24.890Z,421.81
2019-02-02T09:39:24.880Z,419.69
2019-02-02T09:40:25.693Z,420.26
2019-02-02T09:41:24.893Z,418.73
2019-02-02T09:42:24.884Z,419.19
2019-02-02T09:43:24.850Z,419.35
2019-02-02T09:44:24.846Z,419.09
2019-02-02T09:45:24.826Z,422.06
2019-02-02T09:46:24.843Z,422.30
2019-02-02T09:47:24.801Z,419.07
2019-02-02T09:48:24.810Z,422.44
2019-02-02T09:49:24.782Z,419.15
2019-02-02T09:50:24.759Z,417.28
2019-02-02T09:51:24.794Z,420.85
2019-02-02T09:52:24.764Z,415.96
2019-02-02T09:53:24.744Z,419.80
2019-02-02T09:54:26.681Z,421.65
2019-02-02T09:55:24.710Z,420.83
2019-02-02T09:56:24.701Z,419.08
2019-02-02T09:57:27.913Z,416.93
2019-02-02T09:58:24.704Z,413.91
2019-02-02T09:59:24.704Z,415.61
2019-02-02T10:00:24.663Z,417.15
2019-02-02T10:01:27.761Z,419.00
2019-02-02T10:02:27.036Z,417.85
2019-02-02T10:03:24.611Z,414.33
2019-02-02T10:04:24.620Z,419.19
2019-02-02T10:05:24.622Z,420.15
2019-02-02T10:06:24.600Z,420.91
2019-02-02T10:07:24.574Z,419.51
2019-02-02T10:08:24.577Z,417.08
2019-02-02T10:09:24.551Z,416.43
2019-02-02T10:10:24.539Z,416.70
2019-02-02T10:11:25.341Z,416.45
2019-02-02T10:12:24.556Z,415.49
2019-02-02T10:13:24.543Z,418.20
2019-02-02T10:14:24.502Z,416.14
2019-02-02T10:15:24.503Z,418.02
2019-02-02T10:16:24.504Z,415.74
2019-02-02T10:17:24.507Z,419.58
2019-02-02T10:18:25.292Z,416.15
2019-02-02T10:19:24.458Z,415.17
2019-02-02T10:20:24.500Z,422.86
2019-02-02T10:21:24.441Z,417.49
2019-02-02T10:22:24.449Z,417.90
2019-02-02T10:23:24.407Z,419.41
2019-02-02T10:24:24.401Z,415.92
2019-02-02T10:25:24.417Z,416.00
2019-02-02T10:26:24.385Z,416.34
2019-02-02T10:27:24.382Z,418.96
2019-02-02T10:28:24.367Z,415.46
2019-02-02T10:29:24.338Z,419.05
2019-02-02T10:30:24.365Z,416.43
2019-02-02T10:31:24.325Z,417.92
2019-02-02T10:32:24.301Z,416.39
2019-02-02T10:33:24.290Z,416.95
2019-02-02T10:34:25.087Z,419.60
2019-02-02T10:35:24.269Z,414.01
2019-02-02T10:36:24.273Z,415.27
2019-02-02T10:37:24.268Z,419.19
2019-02-02T10:38:24.244Z,419.28
2019-02-02T10:39:24.298Z,415.42
2019-02-02T10:40:24.231Z,417.12
2019-02-02T10:41:24.228Z,414.24
2019-02-02T10:42:24.192Z,415.98
2019-02-02T10:43:24.187Z,415.91
2019-02-02T10:44:24.176Z,416.85
2019-02-02T10:45:24.172Z,416.71
2019-02-02T10:46:24.181Z,413.78
2019-02-02T10:47:24.148Z,415.53
2019-02-02T10:48:24.139Z,413.50
2019-02-02T10:49:24.169Z,417.15
2019-02-02T10:50:24.119Z,415.48
2019-02-02T10:51:25.516Z,418.89
2019-02-02T10:52:24.112Z,419.93
2019-02-02T10:53:24.066Z,417.38
2019-02-02T10:54:24.059Z,419.19
2019-02-02T10:55:24.055Z,417.44
2019-02-02T10:56:24.051Z,419.75
2019-02-02T10:57:24.052Z,418.02
2019-02-02T10:58:24.062Z,420.71
2019-02-02T10:59:24.034Z,416.13
2019-02-02T11:00:23.999Z,417.65
2019-02-02T11:01:23.989Z,416.38
2019-02-02T11:02:23.991Z,417.12
2019-02-02T11:03:23.972Z,414.59
2019-02-02T11:04:24.047Z,418.06
2019-02-02T11:05:23.958Z,416.41
2019-02-02T11:06:23.942Z,416.56
2019-02-02T11:07:24.034Z,418.17
2019-02-02T11:08:23.934Z,416.35
2019-02-02T11:09:24.081Z,416.77
2019-02-02T11:10:24.004Z,416.80
2019-02-02T11:11:23.895Z,418.29
2019-02-02T11:12:23.871Z,421.37
2019-02-02T11:13:23.944Z,419.64
2019-02-02T11:14:23.864Z,417.32
2019-02-02T11:15:23.850Z,418.12
2019-02-02T11:16:23.829Z,417.64
2019-02-02T11:17:23.899Z,420.50
2019-02-02T11:18:23.928Z,422.01
2019-02-02T11:19:23.823Z,421.41
2019-02-02T11:20:24.048Z,416.44
2019-02-02T11:21:23.992Z,418.80
2019-02-02T11:22:23.787Z,417.91
2019-02-02T11:23:23.771Z,419.08
2019-02-02T11:24:23.776Z,420.02
2019-02-02T11:25:23.762Z,418.22
2019-02-02T11:26:23.730Z,416.11
2019-02-02T11:27:23.777Z,419.67
2019-02-02T11:28:23.839Z,417.61
2019-02-02T11:29:23.747Z,421.08
2019-02-02T11:30:23.674Z,418.06
2019-02-02T11:31:23.681Z,420.92
2019-02-02T11:32:23.655Z,416.28
2019-02-02T11:33:23.641Z,418.80
2019-02-02T11:34:23.630Z,417.77
2019-02-02T11:35:23.624Z,420.62
2019-02-02T11:36:23.631Z,422.73
2019-02-02T11:37:23.585Z,421.61
2019-02-02T11:38:23.607Z,420.80
2019-02-02T11:39:23.567Z,423.35
2019-02-02T11:40:23.567Z,418.61
2019-02-02T11:41:23.553Z,419.52
2019-02-02T11:42:23.577Z,422.25
2019-02-02T11:43:23.528Z,421.93
2019-02-02T11:44:23.528Z,418.02
2019-02-02T11:45:23.506Z,421.10
2019-02-02T11:46:23.509Z,421.67
2019-02-02T11:47:23.474Z,420.68
2019-02-02T11:48:23.507Z,418.51
2019-02-02T11:49:23.996Z,420.21
2019-02-02T11:50:23.453Z,420.64
2019-02-02T11:51:23.440Z,421.11
2019-02-02T11:52:23.508Z,419.02
2019-02-02T11:53:23.427Z,416.92
2019-02-02T11:54:23.464Z,414.30
2019-02-02T11:55:23.414Z,415.94
2019-02-02T11:56:23.386Z,417.71
2019-02-02T11:57:23.375Z,416.60
2019-02-02T11:58:23.366Z,419.65
2019-02-02T11:59:23.345Z,416.19
2019-02-02T12:00:23.374Z,418.19
2019-02-02T12:01:23.346Z,419.79
2019-02-02T12:02:23.326Z,421.12
2019-02-02T12:03:23.357Z,418.24
2019-02-02T12:04:23.312Z,419.01
2019-02-02T12:05:23.289Z,421.43
2019-02-02T12:06:23.290Z,421.16
2019-02-02T12:07:23.322Z,425.24
2019-02-02T12:08:23.252Z,419.09
2019-02-02T12:09:23.236Z,422.76
2019-02-02T12:10:23.223Z,425.12
2019-02-02T12:11:23.216Z,422.00
2019-02-02T12:12:23.217Z,419.24
2019-02-02T12:13:23.314Z,425.05
2019-02-02T12:14:23.209Z,421.14
2019-02-02T12:15:23.179Z,422.71
2019-02-02T12:16:23.169Z,423.00
2019-02-02T12:17:23.160Z,420.33
2019-02-02T12:18:23.195Z,423.98
2019-02-02T12:19:23.127Z,420.70
2019-02-02T12:20:23.134Z,425.47
2019-02-02T12:21:23.118Z,420.16
2019-02-02T12:22:23.103Z,425.63
2019-02-02T12:23:23.087Z,419.32
2019-02-02T12:24:23.115Z,418.39
2019-02-02T12:25:23.098Z,419.34
2019-02-02T12:26:23.073Z,420.92
2019-02-02T12:27:23.050Z,421.28
2019-02-02T12:28:23.043Z,421.70